Time;durP1;ratioP1;P1;durP2;ratioP2;P2;SDS_P1;SDS_P2;PMS_P1;PMS_P2;Temp;Humidity;BMP_temperature;BMP_pressure;BME280_temperature;BME280_humidity;BME280_pressure;Samples;Min_cycle;Max_cycle;Signal;HPM_P1;HPM_P2
2023/01/10 00:04:29;;;;;;;4.10;1.73;;;5.70;99.90;;;;;;10449809;28;20021;-80
2023/01/10 00:09:30;;;;;;;0.83;0.83;;;5.70;99.90;;;;;;10453876;28;20035;-80
2023/01/10 00:14:33;;;;;;;1.27;1.23;;;5.60;99.90;;;;;;10429409;28;20025;-79
2023/01/10 00:19:34;;;;;;;1.03;0.97;;;5.60;99.90;;;;;;10468095;22;20060;-83
2023/01/10 00:24:34;;;;;;;2.50;2.33;;;5.60;99.90;;;;;;10489400;28;20040;-80
2023/01/10 00:29:35;;;;;;;1.40;1.30;;;5.60;99.90;;;;;;10488378;28;20032;-80
2023/01/10 00:34:36;;;;;;;1.33;1.33;;;5.50;99.90;;;;;;10498695;28;20520;-79
2023/01/10 00:39:36;;;;;;;0.50;0.47;;;5.50;99.90;;;;;;10469727;28;20557;-80
2023/01/10 00:44:37;;;;;;;1.30;1.17;;;5.50;99.90;;;;;;10469466;28;20024;-83
2023/01/10 00:49:38;;;;;;;2.13;1.83;;;5.50;99.90;;;;;;10488801;28;20027;-80
2023/01/10 00:54:39;;;;;;;0.37;0.37;;;5.50;99.90;;;;;;10488352;28;20016;-82
2023/01/10 00:59:39;;;;;;;0.23;0.23;;;5.50;99.90;;;;;;10495903;28;20036;-81
2023/01/10 01:04:40;;;;;;;3.30;2.50;;;5.50;99.90;;;;;;10489948;28;20135;-79
2023/01/10 01:10:25;;;;;;;2.17;2.07;;;5.40;99.90;;;;;;10491415;28;20032;-83
2023/01/10 01:15:01;;;;;;;0.93;0.93;;;5.40;99.90;;;;;;10486137;28;20442;-80
2023/01/10 01:20:01;;;;;;;1.30;1.27;;;5.30;99.90;;;;;;10485928;28;20052;-80
2023/01/10 01:25:03;;;;;;;0.63;0.63;;;5.30;99.90;;;;;;10486105;28;20139;-81
2023/01/10 01:30:06;;;;;;;2.93;2.50;;;5.20;99.90;;;;;;10485638;28;20502;-80
2023/01/10 01:35:09;;;;;;;2.17;1.77;;;5.10;99.90;;;;;;10476673;28;20107;-79
2023/01/10 01:40:14;;;;;;;2.37;2.17;;;5.10;99.90;;;;;;10485403;28;20037;-82
2023/01/10 01:45:23;;;;;;;5.77;2.33;;;5.00;99.90;;;;;;10484750;28;20062;-82
2023/01/10 01:50:29;;;;;;;5.87;2.60;;;5.00;99.90;;;;;;10485639;28;20040;-81
2023/01/10 01:55:33;;;;;;;1.60;1.53;;;5.00;99.90;;;;;;10465845;28;20037;-82
2023/01/10 02:00:34;;;;;;;4.80;3.13;;;5.00;99.90;;;;;;10485088;28;20046;-82
2023/01/10 02:05:37;;;;;;;0.20;0.20;;;4.90;99.90;;;;;;10471267;28;20029;-81
2023/01/10 02:10:52;;;;;;;1.93;0.27;;;4.90;99.90;;;;;;10483702;28;20031;-81
2023/01/10 02:15:52;;;;;;;0.53;0.53;;;4.90;99.90;;;;;;10483821;28;20071;-82
2023/01/10 02:21:11;;;;;;;1.40;0.57;;;4.80;99.90;;;;;;10483881;28;20056;-81
2023/01/10 02:26:44;;;;;;;0.10;0.10;;;4.80;99.90;;;;;;10464859;28;20028;-82
2023/01/10 02:32:24;;;;;;;0.33;0.33;;;4.80;99.90;;;;;;10459636;28;20488;-81
2023/01/10 02:37:57;;;;;;;0.00;0.00;;;4.80;99.90;;;;;;10483774;28;20472;-81
2023/01/10 02:43:09;;;;;;;0.10;0.10;;;4.80;99.90;;;;;;10438031;28;20052;-82
2023/01/10 02:48:09;;;;;;;0.00;0.00;;;4.80;99.90;;;;;;10483378;28;20415;-81
2023/01/10 02:53:40;;;;;;;0.00;0.00;;;4.80;99.90;;;;;;10483065;28;20086;-80
2023/01/10 02:58:56;;;;;;;0.00;0.00;;;4.80;99.90;;;;;;10480034;28;20048;-85
2023/01/10 03:04:03;;;;;;;0.00;0.00;;;4.80;99.90;;;;;;10482898;28;20032;-82
2023/01/10 03:09:13;;;;;;;0.00;0.00;;;4.90;99.90;;;;;;10488321;28;20103;-81
2023/01/10 03:14:25;;;;;;;0.00;0.00;;;4.90;99.90;;;;;;10492284;28;20171;-81
2023/01/10 03:19:33;;;;;;;0.00;0.00;;;4.80;99.90;;;;;;10490362;28;20151;-83
2023/01/10 03:24:40;;;;;;;0.00;0.00;;;4.90;99.90;;;;;;10490321;28;20366;-80
2023/01/10 03:29:50;;;;;;;1.13;1.03;;;4.90;99.90;;;;;;10491130;28;20028;-81
2023/01/10 03:34:51;;;;;;;0.00;0.00;;;5.00;99.90;;;;;;10470818;28;20707;-83
2023/01/10 03:40:20;;;;;;;0.00;0.00;;;5.00;99.90;;;;;;10489226;28;20044;-83
2023/01/10 03:45:26;;;;;;;0.00;0.00;;;4.90;99.90;;;;;;10489631;28;20021;-85
2023/01/10 03:50:28;;;;;;;0.00;0.00;;;4.90;99.90;;;;;;10490311;28;20025;-81
2023/01/10 03:55:30;;;;;;;0.10;0.10;;;5.00;99.90;;;;;;10487908;28;20563;-81
2023/01/10 04:00:40;;;;;;;0.00;0.00;;;5.00;99.90;;;;;;10471002;28;20037;-85
2023/01/10 04:05:41;;;;;;;0.00;0.00;;;5.00;99.90;;;;;;10470305;28;20551;-81
2023/01/10 04:10:41;;;;;;;4.33;2.03;;;5.00;99.90;;;;;;10487791;28;20032;-80
2023/01/10 04:15:42;;;;;;;0.20;0.20;;;4.90;99.90;;;;;;10481189;28;20423;-80
2023/01/10 04:20:44;;;;;;;0.30;0.30;;;5.00;99.90;;;;;;10463337;28;20743;-80
2023/01/10 04:25:48;;;;;;;0.10;0.10;;;4.80;99.90;;;;;;10462272;28;20044;-83
2023/01/10 04:30:49;;;;;;;0.00;0.00;;;4.80;99.90;;;;;;10480474;28;20110;-81
2023/01/10 04:35:50;;;;;;;0.00;0.00;;;4.90;99.90;;;;;;10471823;28;20044;-80
2023/01/10 04:40:58;;;;;;;0.20;0.20;;;4.90;99.90;;;;;;10480079;28;20060;-81
2023/01/10 04:45:59;;;;;;;0.83;0.63;;;4.80;99.90;;;;;;10479661;28;20032;-84
2023/01/10 04:51:00;;;;;;;0.00;0.00;;;4.80;99.90;;;;;;10443595;28;20036;-80
2023/01/10 04:56:03;;;;;;;0.10;0.10;;;4.80;99.90;;;;;;10486709;23;20053;-81
2023/01/10 05:01:09;;;;;;;0.40;0.40;;;4.80;99.90;;;;;;10467936;28;20755;-81
2023/01/10 05:06:09;;;;;;;0.17;0.17;;;4.80;99.90;;;;;;10491864;28;20581;-82
2023/01/10 05:11:10;;;;;;;0.70;0.70;;;4.70;99.90;;;;;;10485331;28;20158;-81
2023/01/10 05:16:11;;;;;;;0.47;0.47;;;4.70;99.90;;;;;;10467819;28;20040;-80
2023/01/10 05:21:12;;;;;;;0.00;0.00;;;4.70;99.90;;;;;;10485512;28;20044;-84
2023/01/10 05:26:16;;;;;;;0.10;0.10;;;4.70;99.90;;;;;;10479540;28;20139;-82
2023/01/10 05:31:18;;;;;;;0.00;0.00;;;4.70;99.90;;;;;;10477547;28;20684;-82
2023/01/10 05:36:19;;;;;;;0.73;0.73;;;4.60;99.90;;;;;;10484521;28;20025;-80
2023/01/10 05:41:19;;;;;;;1.03;1.03;;;4.60;99.90;;;;;;10485223;28;20020;-80
2023/01/10 05:46:20;;;;;;;0.40;0.40;;;4.60;99.90;;;;;;10485571;28;20029;-81
2023/01/10 05:51:21;;;;;;;4.30;1.40;;;4.60;99.90;;;;;;10472207;28;20438;-82
2023/01/10 05:56:22;;;;;;;0.87;0.87;;;4.60;99.90;;;;;;10484408;28;20053;-82
2023/01/10 06:01:22;;;;;;;1.13;0.87;;;4.50;99.90;;;;;;10484836;28;20025;-82
2023/01/10 06:06:23;;;;;;;3.63;2.10;;;4.50;99.90;;;;;;10484396;28;20671;-82
2023/01/10 06:11:28;;;;;;;1.03;1.03;;;4.50;99.90;;;;;;10465903;28;20036;-82
2023/01/10 06:16:29;;;;;;;4.75;3.95;;;4.50;99.90;;;;;;10484256;28;20047;-82
2023/01/10 06:21:29;;;;;;;0.43;0.43;;;4.50;99.90;;;;;;10484275;28;20476;-85
2023/01/10 06:26:30;;;;;;;1.03;1.03;;;4.50;99.90;;;;;;10483678;28;20032;-82
2023/01/10 06:31:30;;;;;;;0.30;0.30;;;4.50;99.90;;;;;;10465447;28;20078;-84
2023/01/10 06:36:31;;;;;;;0.70;0.70;;;4.50;99.90;;;;;;10465155;28;20559;-84
2023/01/10 06:41:32;;;;;;;0.10;0.10;;;4.40;99.90;;;;;;10482807;28;20017;-85
2023/01/10 06:46:32;;;;;;;3.97;3.47;;;4.50;99.90;;;;;;10483708;28;20024;-83
2023/01/10 06:51:33;;;;;;;0.53;0.53;;;4.50;99.90;;;;;;10484363;28;20028;-83
2023/01/10 06:56:33;;;;;;;0.00;0.00;;;4.50;99.90;;;;;;10483165;28;20044;-84
2023/01/10 07:01:34;;;;;;;0.40;0.30;;;4.50;99.90;;;;;;10465090;28;20024;-82
2023/01/10 07:06:36;;;;;;;0.10;0.10;;;4.50;99.90;;;;;;10482976;28;20472;-82
2023/01/10 07:11:37;;;;;;;0.77;0.77;;;4.50;99.90;;;;;;10483113;28;20107;-82
2023/01/10 07:16:37;;;;;;;2.20;2.00;;;4.50;99.90;;;;;;10482774;28;20035;-84
2023/01/10 07:21:38;;;;;;;1.90;1.27;;;4.40;99.90;;;;;;10482754;28;20032;-82
2023/01/10 07:26:39;;;;;;;0.00;0.00;;;4.40;99.90;;;;;;10483082;28;20436;-82
2023/01/10 07:31:39;;;;;;;1.80;0.70;;;4.40;99.90;;;;;;10464976;28;20020;-82
2023/01/10 07:36:40;;;;;;;15.57;1.40;;;4.30;99.90;;;;;;10482390;28;20037;-82
2023/01/10 07:41:40;;;;;;;0.00;0.00;;;4.30;99.90;;;;;;10482712;28;20025;-82
2023/01/10 07:46:41;;;;;;;0.10;0.10;;;4.30;99.90;;;;;;10465000;28;20098;-85
2023/01/10 07:51:42;;;;;;;0.00;0.00;;;4.30;99.90;;;;;;10483363;28;20509;-83
2023/01/10 07:56:42;;;;;;;0.00;0.00;;;4.30;99.90;;;;;;10489741;28;20396;-82
2023/01/10 08:01:43;;;;;;;1.20;0.90;;;4.30;99.90;;;;;;10471763;28;20023;-84
2023/01/10 08:06:43;;;;;;;0.83;0.83;;;4.30;99.90;;;;;;10490003;28;20036;-86
2023/01/10 08:11:44;;;;;;;0.30;0.30;;;4.30;99.90;;;;;;10490196;28;20028;-82
2023/01/10 08:16:44;;;;;;;0.20;0.20;;;4.30;99.90;;;;;;10489468;28;20032;-81
2023/01/10 08:21:46;;;;;;;0.10;0.10;;;4.30;99.90;;;;;;10470757;28;20020;-82
2023/01/10 08:26:46;;;;;;;0.57;0.57;;;4.30;99.90;;;;;;10488433;28;20032;-82
2023/01/10 08:31:47;;;;;;;0.00;0.00;;;4.30;99.90;;;;;;10489035;28;20392;-82
2023/01/10 08:36:52;;;;;;;0.40;0.40;;;4.40;99.90;;;;;;10488674;28;20039;-82
2023/01/10 08:41:52;;;;;;;0.97;0.97;;;4.40;99.90;;;;;;10470393;28;20039;-85
2023/01/10 08:46:53;;;;;;;0.00;0.00;;;4.50;99.90;;;;;;10488844;28;20025;-82
2023/01/10 08:51:53;;;;;;;2.93;2.63;;;4.50;99.90;;;;;;10488694;28;20043;-82
2023/01/10 08:56:54;;;;;;;0.07;0.07;;;4.50;99.90;;;;;;10487911;28;20392;-82
2023/01/10 09:01:57;;;;;;;2.53;0.87;;;4.50;99.90;;;;;;10469671;28;20115;-85
2023/01/10 09:06:57;;;;;;;0.00;0.00;;;4.60;99.90;;;;;;10468581;28;20028;-86
2023/01/10 09:11:58;;;;;;;1.40;1.30;;;4.60;99.90;;;;;;10486678;28;20040;-83
2023/01/10 09:16:58;;;;;;;0.20;0.20;;;4.70;99.90;;;;;;10486641;28;20431;-83
2023/01/10 09:21:59;;;;;;;0.00;0.00;;;4.70;99.90;;;;;;10486297;28;20376;-86
2023/01/10 09:26:59;;;;;;;0.03;0.03;;;4.80;99.90;;;;;;10474552;28;20039;-83
2023/01/10 09:32:00;;;;;;;1.40;1.30;;;4.80;99.90;;;;;;10486725;28;20073;-83
2023/01/10 09:37:00;;;;;;;1.30;0.63;;;4.80;99.90;;;;;;10486374;28;20028;-82
2023/01/10 09:42:27;;;;;;;0.07;0.07;;;4.90;99.90;;;;;;10486657;28;20156;-86
2023/01/10 09:47:42;;;;;;;0.30;0.30;;;4.90;99.90;;;;;;10467551;28;20033;-82
2023/01/10 09:52:48;;;;;;;0.80;0.80;;;4.90;99.90;;;;;;10469127;28;20061;-85
2023/01/10 09:57:51;;;;;;;1.80;1.55;;;4.90;99.90;;;;;;10425999;28;20033;-83
2023/01/10 10:02:52;;;;;;;0.30;0.30;;;4.90;99.90;;;;;;10442539;28;20766;-82
2023/01/10 10:08:01;;;;;;;0.90;0.90;;;4.90;99.90;;;;;;10444435;28;20163;-82
2023/01/10 10:13:34;;;;;;;0.20;0.20;;;5.00;99.90;;;;;;10443228;28;20469;-82
2023/01/10 10:18:47;;;;;;;3.03;2.83;;;4.90;99.90;;;;;;10441933;28;20105;-83
2023/01/10 10:24:02;;;;;;;1.33;1.23;;;4.90;99.90;;;;;;10425040;28;20091;-83
2023/01/10 10:29:23;;;;;;;0.75;0.75;;;4.90;99.90;;;;;;10443526;28;20057;-83
2023/01/10 10:34:36;;;;;;;1.37;1.27;;;4.90;99.90;;;;;;10442517;28;20086;-84
2023/01/10 10:40:03;;;;;;;0.57;0.57;;;4.90;99.90;;;;;;10442814;28;20040;-83
2023/01/10 10:45:25;;;;;;;0.47;0.47;;;5.00;99.90;;;;;;10443222;28;20043;-85
2023/01/10 10:50:34;;;;;;;0.20;0.20;;;4.90;99.90;;;;;;10440893;28;20115;-86
2023/01/10 10:55:36;;;;;;;0.07;0.07;;;5.00;99.90;;;;;;10469950;28;20064;-81
2023/01/10 11:00:37;;;;;;;0.93;0.93;;;5.00;99.90;;;;;;10483403;28;20075;-82
2023/01/10 11:05:44;;;;;;;0.10;0.10;;;4.90;99.90;;;;;;10483724;28;20119;-82
2023/01/10 11:10:53;;;;;;;0.70;0.70;;;4.90;99.90;;;;;;10483217;28;20028;-84
2023/01/10 11:15:53;;;;;;;0.57;0.57;;;4.90;99.90;;;;;;10483476;28;20032;-82
2023/01/10 11:20:59;;;;;;;3.17;2.30;;;4.90;99.90;;;;;;10483194;28;20455;-85
2023/01/10 11:26:00;;;;;;;1.00;1.00;;;5.00;99.90;;;;;;10464779;28;20036;-82
2023/01/10 11:31:02;;;;;;;1.97;1.80;;;5.00;99.90;;;;;;10473348;28;20021;-82
2023/01/10 11:36:04;;;;;;;1.93;1.80;;;5.00;99.90;;;;;;10490600;28;20107;-82
2023/01/10 11:41:23;;;;;;;3.30;2.80;;;5.00;99.90;;;;;;10490814;28;20029;-82
2023/01/10 11:46:25;;;;;;;0.00;0.00;;;4.90;99.90;;;;;;10490577;28;20020;-83
2023/01/10 11:51:28;;;;;;;0.13;0.13;;;4.90;99.90;;;;;;10472486;28;20032;-83
2023/01/10 11:56:33;;;;;;;0.00;0.00;;;4.90;99.90;;;;;;10489999;28;20048;-83
2023/01/10 12:01:41;;;;;;;0.20;0.20;;;4.90;99.90;;;;;;10490254;28;20067;-83
2023/01/10 12:06:51;;;;;;;5.63;1.37;;;4.90;99.90;;;;;;10490075;28;20115;-84
2023/01/10 12:12:01;;;;;;;0.97;0.97;;;4.90;99.90;;;;;;10490103;28;20473;-83
2023/01/10 12:17:02;;;;;;;0.47;0.47;;;4.90;99.90;;;;;;10488923;28;20047;-83
2023/01/10 12:22:06;;;;;;;0.83;0.70;;;4.90;99.90;;;;;;10489204;28;20063;-83
2023/01/10 12:27:14;;;;;;;0.47;0.47;;;4.90;99.90;;;;;;10489695;28;20032;-83
2023/01/10 12:32:21;;;;;;;0.67;0.67;;;4.90;99.90;;;;;;10489126;28;20012;-86
2023/01/10 12:37:46;;;;;;;0.97;0.97;;;4.80;99.90;;;;;;10489226;28;20845;-86
2023/01/10 12:48:40;;;;;;;0.00;0.00;;;4.80;99.90;;;;;;10488955;28;20471;-83
2023/01/10 12:53:45;;;;;;;0.30;0.30;;;4.80;99.90;;;;;;10488085;28;20080;-85
2023/01/10 12:59:00;;;;;;;0.03;0.03;;;4.70;99.90;;;;;;10488087;28;20408;-83
2023/01/10 13:04:05;;;;;;;1.17;1.10;;;4.70;99.90;;;;;;10487063;28;20035;-82
2023/01/10 13:09:12;;;;;;;0.65;0.65;;;4.60;99.90;;;;;;10487182;28;20063;-83
2023/01/10 13:14:16;;;;;;;3.50;1.27;;;4.60;99.90;;;;;;10486064;28;20028;-82
2023/01/10 13:19:20;;;;;;;0.20;0.20;;;4.60;99.90;;;;;;10486373;28;20538;-82
2023/01/10 13:24:27;;;;;;;3.00;1.50;;;4.70;99.90;;;;;;10486498;28;20090;-85
2023/01/10 13:29:41;;;;;;;0.30;0.30;;;4.70;99.90;;;;;;10487174;28;20033;-82
2023/01/10 13:34:42;;;;;;;16.57;1.80;;;4.70;99.90;;;;;;10485685;28;20476;-81
2023/01/10 13:39:50;;;;;;;2.33;2.23;;;4.60;99.90;;;;;;10467589;28;20040;-81
2023/01/10 13:45:00;;;;;;;2.37;1.37;;;4.70;99.90;;;;;;10485704;28;20037;-81
2023/01/10 13:50:01;;;;;;;1.47;1.37;;;4.70;99.90;;;;;;10484970;28;20040;-81
2023/01/10 13:55:19;;;;;;;7.53;1.80;;;4.70;99.90;;;;;;10485806;28;20059;-80
2023/01/10 14:06:15;;;;;;;0.40;0.40;;;4.70;99.90;;;;;;10485241;28;20630;-81
2023/01/10 14:11:16;;;;;;;0.73;0.73;;;4.70;99.90;;;;;;10483592;28;20116;-82
2023/01/10 14:16:39;;;;;;;0.10;0.10;;;4.70;99.90;;;;;;10464615;28;20031;-81
2023/01/10 14:21:43;;;;;;;0.83;0.83;;;4.70;99.90;;;;;;10483466;28;20024;-82
2023/01/10 14:26:44;;;;;;;3.50;1.37;;;4.70;99.90;;;;;;10483280;28;20073;-81
2023/01/10 14:31:46;;;;;;;0.03;0.03;;;4.70;99.90;;;;;;10483568;28;20111;-82
2023/01/10 14:37:08;;;;;;;13.33;3.17;;;4.70;99.90;;;;;;10484547;28;20035;-83
2023/01/10 14:42:15;;;;;;;0.10;0.10;;;4.70;99.90;;;;;;10480863;28;20029;-84
2023/01/10 14:47:33;;;;;;;0.47;0.47;;;4.60;99.90;;;;;;10475988;28;20020;-86
2023/01/10 14:52:34;;;;;;;0.50;0.50;;;4.60;99.90;;;;;;10474373;28;20655;-82
2023/01/10 14:57:34;;;;;;;0.40;0.40;;;4.60;99.90;;;;;;10473705;28;20144;-84
2023/01/10 15:02:35;;;;;;;0.00;0.00;;;4.60;99.90;;;;;;10475293;28;20059;-81
2023/01/10 15:07:37;;;;;;;0.43;0.33;;;4.60;99.90;;;;;;10483605;28;20512;-84
2023/01/10 15:12:38;;;;;;;0.77;0.77;;;4.60;99.90;;;;;;10483207;28;20081;-86
2023/01/10 15:17:40;;;;;;;0.37;0.37;;;4.60;99.90;;;;;;10482382;28;20036;-83
2023/01/10 15:22:45;;;;;;;0.77;0.77;;;4.60;99.90;;;;;;10474033;28;20036;-84
2023/01/10 15:27:49;;;;;;;0.57;0.57;;;4.60;99.90;;;;;;10481460;28;20495;-83
2023/01/10 15:32:51;;;;;;;0.00;0.00;;;4.60;99.90;;;;;;10482790;28;20031;-84
2023/01/10 15:38:04;;;;;;;0.70;0.67;;;4.60;99.90;;;;;;10482123;28;20552;-84
2023/01/10 15:43:11;;;;;;;0.07;0.07;;;4.60;99.90;;;;;;10483202;28;20032;-84
2023/01/10 15:48:29;;;;;;;0.97;0.63;;;4.60;99.90;;;;;;10482222;28;20032;-83
2023/01/10 15:54:04;;;;;;;1.43;0.43;;;4.50;99.90;;;;;;10480785;28;20443;-87
2023/01/10 15:59:24;;;;;;;0.00;0.00;;;4.50;99.90;;;;;;10481499;28;20049;-86
2023/01/10 16:04:25;;;;;;;0.20;0.20;;;4.50;99.90;;;;;;10481535;28;20380;-84
2023/01/10 16:09:26;;;;;;;0.83;0.83;;;4.50;99.90;;;;;;10481382;28;20032;-83
2023/01/10 16:14:27;;;;;;;1.50;1.40;;;4.50;99.90;;;;;;10481563;28;20170;-82
2023/01/10 16:19:27;;;;;;;2.40;1.90;;;4.50;99.90;;;;;;10488675;28;20621;-82
2023/01/10 16:24:34;;;;;;;0.00;0.00;;;4.50;99.90;;;;;;10489495;28;20033;-83
2023/01/10 16:29:36;;;;;;;3.07;2.87;;;4.50;99.90;;;;;;10469987;28;20035;-86
2023/01/10 16:34:36;;;;;;;0.43;0.43;;;4.50;99.90;;;;;;10487205;28;20135;-84
2023/01/10 16:39:37;;;;;;;0.30;0.30;;;4.50;99.90;;;;;;10487368;28;20036;-82
2023/01/10 16:44:38;;;;;;;2.53;2.40;;;4.50;99.90;;;;;;10487833;28;20100;-82
2023/01/10 16:49:40;;;;;;;1.83;1.77;;;4.50;99.90;;;;;;10467107;28;20024;-83
2023/01/10 16:54:41;;;;;;;7.07;1.63;;;4.40;99.90;;;;;;10467355;28;20178;-84
2023/01/10 16:59:41;;;;;;;1.70;0.83;;;4.40;99.90;;;;;;10485077;28;20045;-82
2023/01/10 17:04:42;;;;;;;0.20;0.20;;;4.40;99.90;;;;;;10485626;28;20031;-84
2023/01/10 17:09:42;;;;;;;0.93;0.93;;;4.40;99.90;;;;;;10486978;28;20098;-82
2023/01/10 17:14:43;;;;;;;1.80;1.60;;;4.40;99.90;;;;;;10484219;28;20768;-82
2023/01/10 17:19:46;;;;;;;0.50;0.50;;;4.40;99.90;;;;;;10483755;28;20044;-82
2023/01/10 17:24:46;;;;;;;3.00;1.60;;;4.40;99.90;;;;;;10485878;28;20379;-82
2023/01/10 17:29:47;;;;;;;2.00;1.90;;;4.50;99.90;;;;;;10485138;28;20044;-83
2023/01/10 17:34:47;;;;;;;0.93;0.93;;;4.40;99.90;;;;;;10485055;28;20039;-83
2023/01/10 17:39:48;;;;;;;1.07;1.07;;;4.50;99.90;;;;;;10466056;28;20110;-84
2023/01/10 17:44:48;;;;;;;0.67;0.67;;;4.50;99.90;;;;;;10457476;28;20424;-83
2023/01/10 17:49:49;;;;;;;0.93;0.93;;;4.50;99.90;;;;;;10448501;28;20025;-83
2023/01/10 17:54:50;;;;;;;1.67;1.57;;;4.40;99.90;;;;;;10482904;28;20048;-81
2023/01/10 17:59:51;;;;;;;3.77;3.47;;;4.40;99.90;;;;;;10463690;28;20130;-84
2023/01/10 18:04:51;;;;;;;0.03;0.03;;;4.40;99.90;;;;;;10465732;28;20405;-81
2023/01/10 18:09:55;;;;;;;4.07;3.30;;;4.30;99.90;;;;;;10464722;28;20527;-81
2023/01/10 18:14:56;;;;;;;0.73;0.73;;;4.30;99.90;;;;;;10478456;28;20388;-81
2023/01/10 18:19:57;;;;;;;1.23;1.20;;;4.30;99.90;;;;;;10483153;28;20044;-81
2023/01/10 18:24:57;;;;;;;1.90;1.80;;;4.30;99.90;;;;;;10482304;28;20032;-80
2023/01/10 18:29:58;;;;;;;0.03;0.03;;;4.30;99.90;;;;;;10463193;28;20047;-81
2023/01/10 18:34:59;;;;;;;0.53;0.43;;;4.30;99.90;;;;;;10482149;28;20048;-81
2023/01/10 18:40:00;;;;;;;0.10;0.10;;;4.40;99.90;;;;;;10483268;28;20488;-83
2023/01/10 18:45:00;;;;;;;2.43;2.33;;;4.40;99.90;;;;;;10482204;28;20123;-81
2023/01/10 18:50:01;;;;;;;1.20;1.10;;;4.40;99.90;;;;;;10482106;28;20115;-82
2023/01/10 18:55:01;;;;;;;2.67;1.53;;;4.40;99.90;;;;;;10481404;28;20052;-80
2023/01/10 19:00:03;;;;;;;0.00;0.00;;;4.40;99.90;;;;;;10482242;28;20602;-84
2023/01/10 19:05:08;;;;;;;0.00;0.00;;;4.40;99.90;;;;;;10481197;28;20029;-82
2023/01/10 19:10:09;;;;;;;0.30;0.30;;;4.30;99.90;;;;;;10481662;28;20032;-84
2023/01/10 19:15:10;;;;;;;1.93;1.83;;;4.20;99.90;;;;;;10474273;28;20651;-82
2023/01/10 19:20:11;;;;;;;0.60;0.60;;;4.20;99.90;;;;;;10472848;28;20089;-84
2023/01/10 19:25:11;;;;;;;2.47;2.27;;;4.00;99.90;;;;;;10480545;28;20035;-86
2023/01/10 19:30:12;;;;;;;6.70;1.47;;;4.00;99.90;;;;;;10480876;28;20062;-81
2023/01/10 19:35:12;;;;;;;1.03;1.03;;;4.00;99.90;;;;;;10481621;28;20043;-81
2023/01/10 19:40:13;;;;;;;1.10;1.10;;;4.00;99.90;;;;;;10482047;28;20051;-81
2023/01/10 19:45:14;;;;;;;2.53;1.30;;;4.00;99.90;;;;;;10480437;28;20024;-84
2023/01/10 19:50:15;;;;;;;1.37;1.37;;;4.10;99.90;;;;;;10486645;28;20726;-82
2023/01/10 19:55:15;;;;;;;0.73;0.73;;;4.20;99.90;;;;;;10487122;28;20457;-83
2023/01/10 20:00:16;;;;;;;1.60;1.50;;;4.20;99.90;;;;;;10488432;28;20043;-82
2023/01/10 20:05:17;;;;;;;0.00;0.00;;;4.20;99.90;;;;;;10487465;28;20062;-82
2023/01/10 20:10:18;;;;;;;1.50;1.50;;;4.20;99.90;;;;;;10488060;28;20123;-81
2023/01/10 20:15:18;;;;;;;0.10;0.10;;;4.20;99.90;;;;;;10483628;28;20036;-84
2023/01/10 20:20:19;;;;;;;2.17;2.00;;;4.20;99.90;;;;;;10488641;28;20115;-81
2023/01/10 20:25:20;;;;;;;0.07;0.07;;;4.20;99.90;;;;;;10488150;28;20036;-81
2023/01/10 20:30:21;;;;;;;2.47;2.37;;;4.20;99.90;;;;;;10488904;28;20054;-81
2023/01/10 20:35:22;;;;;;;1.10;1.10;;;4.20;99.90;;;;;;10487470;28;20762;-81
2023/01/10 20:40:24;;;;;;;0.60;0.60;;;4.20;99.90;;;;;;10474973;28;20117;-83
2023/01/10 20:45:25;;;;;;;6.73;1.80;;;4.20;99.90;;;;;;10487604;28;20033;-80
2023/01/10 20:50:25;;;;;;;0.80;0.80;;;4.20;99.90;;;;;;10488319;28;20032;-81
2023/01/10 20:55:26;;;;;;;1.70;1.60;;;4.20;99.90;;;;;;10487684;28;20127;-81
2023/01/10 21:00:27;;;;;;;0.10;0.10;;;4.20;99.90;;;;;;10485812;28;20546;-81
2023/01/10 21:05:27;;;;;;;2.83;2.67;;;4.20;99.90;;;;;;10487042;28;20046;-81
2023/01/10 21:10:28;;;;;;;14.97;3.03;;;4.20;99.90;;;;;;10487193;28;20036;-81
2023/01/10 21:15:29;;;;;;;0.63;0.63;;;4.30;99.90;;;;;;10468284;28;20033;-81
2023/01/10 21:20:29;;;;;;;0.40;0.37;;;4.30;99.90;;;;;;10486516;28;20153;-83
2023/01/10 21:25:30;;;;;;;0.97;0.97;;;4.30;99.90;;;;;;10486150;28;20037;-82
2023/01/10 21:30:30;;;;;;;7.03;2.43;;;4.40;99.90;;;;;;10486385;28;20036;-82
2023/01/10 21:35:32;;;;;;;2.33;2.23;;;4.40;99.90;;;;;;10486472;28;20051;-81
2023/01/10 21:40:33;;;;;;;0.50;0.50;;;4.40;99.90;;;;;;10485798;28;20047;-81
2023/01/10 21:45:34;;;;;;;3.53;2.90;;;4.40;99.90;;;;;;10485240;28;20036;-81
2023/01/10 21:50:34;;;;;;;0.10;0.10;;;4.40;99.90;;;;;;10484821;28;20039;-84
2023/01/10 21:55:35;;;;;;;2.53;2.33;;;4.30;99.90;;;;;;10459949;28;20052;-81
2023/01/10 22:00:36;;;;;;;0.50;0.50;;;4.40;99.90;;;;;;10465646;28;20758;-83
2023/01/10 22:05:37;;;;;;;0.63;0.63;;;4.30;99.90;;;;;;10449360;28;20037;-84
2023/01/10 22:10:37;;;;;;;3.80;3.60;;;4.40;99.90;;;;;;10443452;28;20025;-82
2023/01/10 22:15:39;;;;;;;0.30;0.30;;;4.40;99.90;;;;;;10456074;28;20040;-81
2023/01/10 22:20:43;;;;;;;0.00;0.00;;;4.40;99.90;;;;;;10440732;28;20071;-81
2023/01/10 22:25:43;;;;;;;1.30;1.23;;;4.30;99.90;;;;;;10456062;28;20068;-81
2023/01/10 22:30:44;;;;;;;0.10;0.10;;;4.40;99.90;;;;;;10459371;28;20557;-82
2023/01/10 22:35:44;;;;;;;1.17;1.17;;;4.30;99.90;;;;;;10442307;28;20120;-81
2023/01/10 22:40:45;;;;;;;4.23;1.80;;;4.30;99.90;;;;;;10442156;28;20033;-83
2023/01/10 22:45:46;;;;;;;0.10;0.10;;;4.30;99.90;;;;;;10449977;28;20039;-81
2023/01/10 22:50:47;;;;;;;3.00;1.70;;;4.30;99.90;;;;;;10441818;28;20037;-81
2023/01/10 22:55:48;;;;;;;0.90;0.90;;;4.30;99.90;;;;;;10469020;28;20044;-81
2023/01/10 23:00:49;;;;;;;0.50;0.50;;;4.30;99.90;;;;;;10482099;28;20104;-82
2023/01/10 23:05:56;;;;;;;0.47;0.47;;;4.10;99.90;;;;;;10464839;28;20119;-81
2023/01/10 23:10:57;;;;;;;0.60;0.60;;;4.00;99.90;;;;;;10483321;28;20099;-81
2023/01/10 23:16:00;;;;;;;1.90;1.80;;;3.90;99.90;;;;;;10463643;28;20033;-81
2023/01/10 23:21:00;;;;;;;0.77;0.77;;;3.80;99.90;;;;;;10474108;28;20048;-81
2023/01/10 23:26:04;;;;;;;0.27;0.27;;;3.80;99.90;;;;;;10488230;28;20101;-81
2023/01/10 23:31:06;;;;;;;0.00;0.00;;;3.70;99.90;;;;;;10490612;28;20060;-82
2023/01/10 23:36:07;;;;;;;0.10;0.10;;;3.70;99.90;;;;;;10490108;28;20553;-80
2023/01/10 23:41:08;;;;;;;0.30;0.30;;;3.70;99.90;;;;;;10490060;28;20047;-81
2023/01/10 23:46:09;;;;;;;1.10;1.03;;;3.70;99.90;;;;;;10488448;28;20536;-84
2023/01/10 23:51:10;;;;;;;0.17;0.17;;;3.70;99.90;;;;;;10489546;28;20679;-81
2023/01/10 23:56:13;;;;;;;1.40;1.37;;;3.70;99.90;;;;;;10489401;28;20049;-81
